createdAt,value
2023-02-18T00:00:20.181Z,42.81
2023-02-18T00:03:06.270Z,42.93
2023-02-18T00:05:52.693Z,43.05
2023-02-18T00:08:39.301Z,42.78
2023-02-18T00:11:25.610Z,43.12
2023-02-18T00:14:13.894Z,43.00
2023-02-18T00:16:59.920Z,43.01
2023-02-18T00:19:45.523Z,42.75
2023-02-18T00:22:31.431Z,43.13
2023-02-18T00:25:17.445Z,43.00
2023-02-18T00:28:03.385Z,43.11
2023-02-18T00:30:49.240Z,43.03
2023-02-18T00:33:35.042Z,42.99
2023-02-18T00:36:22.262Z,42.98
2023-02-18T00:39:10.066Z,43.30
2023-02-18T00:41:55.928Z,43.49
2023-02-18T00:44:41.742Z,43.14
2023-02-18T00:47:27.783Z,43.33
2023-02-18T00:50:13.730Z,43.21
2023-02-18T00:52:59.658Z,43.40
2023-02-18T00:55:47.992Z,43.13
2023-02-18T00:58:34.848Z,43.46
2023-02-18T01:01:23.283Z,43.40
2023-02-18T01:04:09.270Z,43.44
2023-02-18T01:06:54.961Z,43.57
2023-02-18T01:09:40.763Z,43.06
2023-02-18T01:12:26.825Z,43.21
2023-02-18T01:15:15.970Z,43.59
2023-02-18T01:18:01.919Z,43.68
2023-02-18T01:20:48.549Z,43.52
2023-02-18T01:23:35.765Z,43.92
2023-02-18T01:26:21.704Z,43.67
2023-02-18T01:29:07.580Z,43.73
2023-02-18T01:31:53.492Z,45.08
2023-02-18T01:34:39.847Z,43.79
2023-02-18T01:37:25.702Z,43.99
2023-02-18T01:40:13.542Z,43.87
2023-02-18T01:42:59.707Z,44.13
2023-02-18T01:45:51.697Z,44.18
2023-02-18T01:48:48.246Z,43.92
2023-02-18T01:51:37.469Z,44.07
2023-02-18T01:54:35.124Z,43.90
2023-02-18T01:57:23.558Z,44.30
2023-02-18T02:00:17.028Z,44.03
2023-02-18T02:03:05.513Z,43.73
2023-02-18T02:05:51.466Z,44.00
2023-02-18T02:08:37.295Z,44.33
2023-02-18T02:11:33.230Z,44.36
2023-02-18T02:14:55.668Z,44.50
2023-02-18T02:17:49.012Z,44.50
2023-02-18T02:20:53.178Z,44.64
2023-02-18T02:24:11.909Z,44.54
2023-02-18T02:27:10.484Z,44.90
2023-02-18T02:29:56.197Z,44.82
2023-02-18T02:32:58.624Z,44.85
2023-02-18T02:36:06.009Z,45.02
2023-02-18T02:39:19.135Z,44.92
2023-02-18T02:42:05.293Z,44.61
2023-02-18T02:45:06.427Z,44.87
2023-02-18T02:47:57.106Z,44.90
2023-02-18T02:51:18.412Z,44.80
2023-02-18T02:54:23.625Z,44.82
2023-02-18T02:57:13.873Z,44.87
2023-02-18T03:00:13.608Z,45.14
2023-02-18T03:03:21.027Z,45.08
2023-02-18T03:06:20.005Z,45.01
2023-02-18T03:09:34.657Z,45.02
2023-02-18T03:12:23.420Z,45.17
2023-02-18T03:15:09.359Z,45.28
2023-02-18T03:18:03.793Z,44.89
2023-02-18T03:21:05.729Z,45.10
2023-02-18T03:24:21.111Z,45.01
2023-02-18T03:27:14.611Z,45.11
2023-02-18T03:30:15.200Z,45.09
2023-02-18T03:33:04.612Z,45.45
2023-02-18T03:35:51.300Z,45.42
2023-02-18T03:38:42.623Z,45.30
2023-02-18T03:41:29.227Z,45.32
2023-02-18T03:44:15.697Z,45.30
2023-02-18T03:47:01.628Z,45.55
2023-02-18T03:49:47.458Z,45.08
2023-02-18T03:52:36.662Z,45.42
2023-02-18T03:55:22.891Z,45.25
2023-02-18T03:58:08.908Z,45.72
2023-02-18T04:00:54.786Z,45.68
2023-02-18T04:03:40.492Z,45.53
2023-02-18T04:06:26.482Z,45.62
2023-02-18T04:09:12.387Z,45.61
2023-02-18T04:11:58.106Z,45.66
2023-02-18T04:14:44.348Z,45.35
2023-02-18T04:17:30.379Z,45.56
2023-02-18T04:20:16.785Z,45.72
2023-02-18T04:23:02.674Z,45.76
2023-02-18T04:25:48.821Z,45.52
2023-02-18T04:28:34.639Z,45.89
2023-02-18T04:31:20.497Z,45.77
2023-02-18T04:34:06.750Z,45.70
2023-02-18T04:36:52.567Z,45.62
2023-02-18T04:39:38.299Z,45.67
2023-02-18T04:42:24.355Z,45.89
2023-02-18T04:45:10.168Z,46.62
2023-02-18T04:47:55.937Z,46.08
2023-02-18T04:50:42.259Z,45.71
2023-02-18T04:53:28.118Z,45.96
2023-02-18T04:56:13.999Z,46.18
2023-02-18T04:58:59.863Z,46.06
2023-02-18T05:01:45.684Z,45.98
2023-02-18T05:04:31.813Z,46.37
2023-02-18T05:07:17.999Z,46.17
2023-02-18T05:10:04.075Z,46.63
2023-02-18T05:12:50.107Z,46.48
2023-02-18T05:15:35.887Z,46.07
2023-02-18T05:18:21.478Z,46.44
2023-02-18T05:21:07.405Z,46.40
2023-02-18T05:23:53.216Z,46.55
2023-02-18T05:26:39.157Z,46.77
2023-02-18T05:29:25.208Z,46.76
2023-02-18T05:32:11.106Z,47.01
2023-02-18T05:34:57.121Z,47.14
2023-02-18T05:37:42.768Z,46.77
2023-02-18T05:40:28.624Z,46.91
2023-02-18T05:43:14.720Z,46.79
2023-02-18T05:46:00.697Z,46.71
2023-02-18T05:48:46.504Z,46.89
2023-02-18T05:51:32.154Z,46.76
2023-02-18T05:54:18.000Z,46.78
2023-02-18T05:57:04.169Z,46.98
2023-02-18T05:59:50.287Z,46.75
2023-02-18T06:02:36.938Z,46.78
2023-02-18T06:05:23.036Z,46.74
2023-02-18T06:08:08.773Z,46.94
2023-02-18T06:10:55.023Z,46.59
2023-02-18T06:13:40.898Z,46.92
2023-02-18T06:16:26.748Z,47.03
2023-02-18T06:19:12.983Z,47.08
2023-02-18T06:21:58.964Z,46.84
2023-02-18T06:24:44.826Z,47.20
2023-02-18T06:27:30.761Z,47.55
2023-02-18T06:30:16.557Z,47.15
2023-02-18T06:33:04.702Z,47.29
2023-02-18T06:35:59.460Z,47.37
2023-02-18T06:38:46.171Z,47.18
2023-02-18T06:41:32.233Z,47.35
2023-02-18T06:44:18.065Z,47.59
2023-02-18T06:47:04.166Z,47.53
2023-02-18T06:49:50.145Z,47.59
2023-02-18T06:52:38.122Z,47.43
2023-02-18T06:55:23.958Z,47.37
2023-02-18T06:58:10.881Z,47.43
2023-02-18T07:00:57.190Z,47.71
2023-02-18T07:03:43.152Z,47.54
2023-02-18T07:06:28.898Z,47.82
2023-02-18T07:09:14.834Z,47.80
2023-02-18T07:12:00.674Z,47.54
2023-02-18T07:14:46.624Z,47.90
2023-02-18T07:17:32.454Z,47.55
2023-02-18T07:20:19.308Z,47.90
2023-02-18T07:23:05.156Z,47.61
2023-02-18T07:25:51.216Z,47.59
2023-02-18T07:28:37.097Z,47.76
2023-02-18T07:31:23.168Z,47.90
2023-02-18T07:34:09.726Z,47.73
2023-02-18T07:36:55.863Z,47.94
2023-02-18T07:39:43.193Z,47.91
2023-02-18T07:42:29.100Z,47.98
2023-02-18T07:45:15.643Z,48.32
2023-02-18T07:48:02.042Z,47.97
2023-02-18T07:50:47.988Z,48.17
2023-02-18T07:53:33.822Z,47.95
2023-02-18T07:56:19.856Z,48.00
2023-02-18T07:59:06.043Z,48.25
2023-02-18T08:01:52.042Z,48.20
2023-02-18T08:04:38.389Z,48.41
2023-02-18T08:07:24.123Z,48.45
2023-02-18T08:10:10.141Z,47.97
2023-02-18T08:12:56.108Z,48.32
2023-02-18T08:15:42.287Z,48.66
2023-02-18T08:18:28.100Z,48.43
2023-02-18T08:21:15.005Z,48.14
2023-02-18T08:24:01.002Z,48.69
2023-02-18T08:26:59.817Z,48.40
2023-02-18T08:29:46.373Z,48.68
2023-02-18T08:32:32.542Z,48.43
2023-02-18T08:35:18.698Z,48.33
2023-02-18T08:38:04.928Z,48.66
2023-02-18T08:40:51.711Z,48.21
2023-02-18T08:43:37.894Z,48.71
2023-02-18T08:46:25.281Z,48.25
2023-02-18T08:49:21.149Z,48.31
2023-02-18T08:52:07.413Z,48.09
2023-02-18T08:54:53.890Z,48.36
2023-02-18T08:57:40.423Z,48.61
2023-02-18T09:00:27.240Z,48.54
2023-02-18T09:03:14.471Z,48.66
2023-02-18T09:06:00.555Z,48.51
2023-02-18T09:08:46.797Z,49.05
2023-02-18T09:11:33.084Z,48.84
2023-02-18T09:14:19.199Z,48.54
2023-02-18T09:17:05.050Z,48.56
2023-02-18T09:19:50.877Z,48.82
2023-02-18T09:22:36.869Z,48.26
2023-02-18T09:25:22.921Z,48.42
2023-02-18T09:28:08.572Z,48.39
2023-02-18T09:30:54.766Z,47.96
2023-02-18T09:33:45.684Z,48.34
2023-02-18T09:36:32.400Z,48.33
2023-02-18T09:39:20.153Z,48.25
2023-02-18T09:42:08.601Z,47.98
2023-02-18T09:44:56.674Z,48.11
2023-02-18T09:47:43.918Z,47.73
2023-02-18T09:50:33.576Z,47.79
2023-02-18T09:53:20.187Z,48.08
2023-02-18T09:56:07.319Z,48.02
2023-02-18T09:58:54.381Z,47.97
2023-02-18T10:01:41.833Z,47.80
2023-02-18T10:04:39.991Z,47.86
2023-02-18T10:07:33.700Z,47.36
2023-02-18T10:10:31.859Z,47.64
2023-02-18T10:13:21.828Z,47.50
2023-02-18T10:16:09.844Z,47.56
2023-02-18T10:18:58.407Z,47.85
2023-02-18T10:21:45.594Z,47.74
2023-02-18T10:24:44.822Z,47.69
2023-02-18T10:27:33.109Z,47.48
2023-02-18T10:30:37.868Z,47.51
2023-02-18T10:33:32.760Z,47.53
2023-02-18T10:36:37.412Z,47.46
2023-02-18T10:39:33.128Z,47.17
2023-02-18T10:42:37.768Z,47.50
2023-02-18T10:45:37.765Z,47.33
2023-02-18T10:49:05.874Z,45.39
2023-02-18T10:51:55.173Z,47.01
2023-02-18T10:54:58.071Z,46.41
2023-02-18T10:57:52.294Z,46.74
2023-02-18T11:00:39.820Z,46.93
2023-02-18T11:03:36.714Z,46.65
2023-02-18T11:06:32.074Z,46.68
2023-02-18T11:09:47.979Z,46.69
2023-02-18T11:12:49.407Z,46.66
2023-02-18T11:15:35.949Z,46.30
2023-02-18T11:18:44.358Z,46.14
2023-02-18T11:21:35.497Z,46.23
2023-02-18T11:24:22.116Z,46.03
2023-02-18T11:27:13.562Z,45.15
2023-02-18T11:30:07.345Z,45.93
2023-02-18T11:33:00.667Z,45.86
2023-02-18T11:35:51.850Z,45.68
2023-02-18T11:38:44.899Z,44.97
2023-02-18T11:41:40.448Z,45.11
2023-02-18T11:44:26.349Z,45.65
2023-02-18T11:47:15.068Z,45.31
2023-02-18T11:50:15.653Z,45.91
2023-02-18T11:53:31.774Z,45.54
2023-02-18T11:56:20.309Z,45.50
2023-02-18T11:59:07.245Z,45.53
2023-02-18T12:01:59.329Z,45.42
2023-02-18T12:04:59.477Z,45.29
2023-02-18T12:07:55.257Z,45.44
2023-02-18T12:10:44.843Z,45.24
2023-02-18T12:13:37.052Z,45.14
2023-02-18T12:16:41.552Z,45.34
2023-02-18T12:19:40.621Z,45.13
2023-02-18T12:22:42.061Z,44.86
2023-02-18T12:25:45.119Z,45.39
2023-02-18T12:28:43.027Z,45.45
2023-02-18T12:31:53.203Z,44.64
2023-02-18T12:35:03.802Z,45.00
2023-02-18T12:37:56.631Z,44.94
2023-02-18T12:40:51.487Z,45.04
2023-02-18T12:44:19.213Z,44.60
2023-02-18T12:47:05.044Z,44.67
2023-02-18T12:50:12.933Z,44.41
2023-02-18T12:53:07.820Z,44.73
2023-02-18T12:56:12.277Z,44.96
2023-02-18T12:59:20.898Z,44.67
2023-02-18T13:02:22.372Z,43.27
2023-02-18T13:05:37.546Z,44.96
2023-02-18T13:08:23.462Z,44.54
2023-02-18T13:11:32.651Z,44.18
2023-02-18T13:14:24.810Z,43.54
2023-02-18T13:17:11.587Z,43.92
2023-02-18T13:20:24.044Z,44.10
2023-02-18T13:23:19.757Z,43.73
2023-02-18T13:26:07.139Z,43.78
2023-02-18T13:29:02.340Z,43.96
2023-02-18T13:32:08.045Z,43.58
2023-02-18T13:35:09.501Z,43.55
2023-02-18T13:38:04.204Z,43.69
2023-02-18T13:40:50.676Z,43.51
2023-02-18T13:43:36.768Z,43.37
2023-02-18T13:46:24.129Z,43.59
2023-02-18T13:49:15.742Z,43.07
2023-02-18T13:52:03.493Z,43.15
2023-02-18T13:54:51.521Z,43.14
2023-02-18T13:57:39.405Z,42.80
2023-02-18T14:00:35.860Z,42.39
2023-02-18T14:03:30.839Z,42.42
2023-02-18T14:07:03.080Z,42.35
2023-02-18T14:09:49.357Z,42.35
2023-02-18T14:12:38.513Z,41.80
2023-02-18T14:15:24.311Z,41.86
2023-02-18T14:18:13.509Z,41.82
2023-02-18T14:21:22.430Z,41.82
2023-02-18T14:24:11.706Z,41.81
2023-02-18T14:27:09.533Z,41.86
2023-02-18T14:29:55.772Z,42.14
2023-02-18T14:32:42.194Z,42.24
2023-02-18T14:35:53.435Z,42.08
2023-02-18T14:39:04.021Z,41.35
2023-02-18T14:42:04.097Z,40.10
2023-02-18T14:45:00.554Z,41.90
2023-02-18T14:48:01.472Z,42.21
2023-02-18T14:50:50.342Z,41.83
2023-02-18T14:53:43.005Z,42.16
2023-02-18T14:56:29.138Z,42.30
2023-02-18T14:59:15.511Z,42.13
2023-02-18T15:02:01.803Z,42.14
2023-02-18T15:04:48.031Z,42.19
2023-02-18T15:07:34.113Z,42.32
2023-02-18T15:10:20.221Z,42.33
2023-02-18T15:13:10.079Z,42.21
2023-02-18T15:16:02.670Z,41.99
2023-02-18T15:18:54.515Z,42.04
2023-02-18T15:21:43.430Z,42.18
2023-02-18T15:24:34.771Z,41.99
2023-02-18T15:27:23.175Z,42.07
2023-02-18T15:30:22.404Z,42.26
2023-02-18T15:33:12.022Z,42.26
2023-02-18T15:36:07.715Z,42.23
2023-02-18T15:38:54.300Z,42.20
2023-02-18T15:41:40.579Z,42.45
2023-02-18T15:44:29.517Z,42.28
2023-02-18T15:47:17.471Z,42.30
2023-02-18T15:50:04.409Z,42.39
2023-02-18T15:52:50.906Z,42.58
2023-02-18T15:55:41.695Z,42.44
2023-02-18T15:58:33.135Z,42.61
2023-02-18T16:01:29.538Z,42.66
2023-02-18T16:04:15.987Z,42.24
2023-02-18T16:07:18.979Z,42.50
2023-02-18T16:10:14.945Z,42.33
2023-02-18T16:13:01.393Z,42.27
2023-02-18T16:15:50.294Z,42.47
2023-02-18T16:18:40.950Z,42.38
2023-02-18T16:21:34.326Z,42.70
2023-02-18T16:24:26.512Z,42.62
2023-02-18T16:27:17.292Z,42.43
2023-02-18T16:30:15.963Z,42.69
2023-02-18T16:33:01.932Z,42.73
2023-02-18T16:35:50.221Z,42.65
2023-02-18T16:38:36.621Z,42.67
2023-02-18T16:41:22.360Z,42.82
2023-02-18T16:44:14.116Z,42.88
2023-02-18T16:46:59.979Z,42.98
2023-02-18T16:49:47.347Z,42.58
2023-02-18T16:52:33.257Z,43.00
2023-02-18T16:55:22.579Z,42.90
2023-02-18T16:58:08.706Z,42.77
2023-02-18T17:00:55.014Z,42.57
2023-02-18T17:03:41.288Z,42.92
2023-02-18T17:06:27.829Z,42.93
2023-02-18T17:09:23.386Z,42.84
2023-02-18T17:12:09.648Z,42.73
2023-02-18T17:14:55.585Z,42.84
2023-02-18T17:17:41.500Z,42.72
2023-02-18T17:20:29.106Z,42.74
2023-02-18T17:23:22.370Z,43.02
2023-02-18T17:26:16.220Z,42.81
2023-02-18T17:29:02.513Z,43.02
2023-02-18T17:31:50.548Z,42.71
2023-02-18T17:34:41.073Z,42.64
2023-02-18T17:37:29.746Z,42.90
2023-02-18T17:40:18.205Z,42.76
2023-02-18T17:43:04.215Z,42.91
2023-02-18T17:45:52.811Z,42.83
2023-02-18T17:48:39.897Z,42.75
2023-02-18T17:51:28.023Z,42.79
2023-02-18T17:54:19.508Z,42.80
2023-02-18T17:57:05.876Z,42.69
2023-02-18T17:59:51.600Z,42.95
2023-02-18T18:02:37.564Z,43.20
2023-02-18T18:05:24.364Z,43.15
2023-02-18T18:08:10.633Z,42.98
2023-02-18T18:10:59.776Z,43.06
2023-02-18T18:13:46.571Z,43.10
2023-02-18T18:16:32.730Z,43.09
2023-02-18T18:19:18.596Z,43.46
2023-02-18T18:22:08.624Z,43.18
2023-02-18T18:25:00.889Z,43.20
2023-02-18T18:27:47.319Z,43.21
2023-02-18T18:30:35.729Z,43.20
2023-02-18T18:33:27.230Z,43.36
2023-02-18T18:36:13.473Z,43.35
2023-02-18T18:38:59.639Z,43.38
2023-02-18T18:41:45.990Z,43.19
2023-02-18T18:44:31.900Z,43.44
2023-02-18T18:47:17.939Z,43.40
2023-02-18T18:50:04.146Z,43.36
2023-02-18T18:52:51.525Z,43.13
2023-02-18T18:55:38.814Z,43.63
2023-02-18T18:58:25.772Z,43.73
2023-02-18T19:01:17.574Z,43.83
2023-02-18T19:04:04.065Z,43.42
2023-02-18T19:06:49.893Z,43.63
2023-02-18T19:09:35.800Z,44.06
2023-02-18T19:12:21.725Z,43.78
2023-02-18T19:15:09.714Z,44.04
2023-02-18T19:17:56.750Z,43.71
2023-02-18T19:20:43.070Z,44.63
2023-02-18T19:23:29.215Z,44.19
2023-02-18T19:26:16.914Z,44.44
2023-02-18T19:29:03.467Z,44.62
2023-02-18T19:31:50.769Z,44.27
2023-02-18T19:34:37.167Z,44.15
2023-02-18T19:37:24.698Z,44.39
2023-02-18T19:40:13.475Z,44.83
2023-02-18T19:42:59.437Z,44.54
2023-02-18T19:45:47.039Z,44.28
2023-02-18T19:48:33.136Z,44.15
2023-02-18T19:51:21.425Z,44.51
2023-02-18T19:54:07.590Z,44.45
2023-02-18T19:56:53.461Z,44.76
2023-02-18T19:59:40.500Z,44.20
2023-02-18T20:02:27.600Z,44.57
2023-02-18T20:05:14.190Z,44.50
2023-02-18T20:08:00.028Z,44.45
2023-02-18T20:10:46.042Z,44.34
2023-02-18T20:13:32.206Z,44.65
2023-02-18T20:16:18.460Z,44.79
2023-02-18T20:19:04.728Z,44.70
2023-02-18T20:21:51.578Z,45.19
2023-02-18T20:24:39.652Z,44.92
2023-02-18T20:27:25.971Z,44.72
2023-02-18T20:30:12.358Z,44.60
2023-02-18T20:32:58.444Z,44.83
2023-02-18T20:35:44.660Z,44.98
2023-02-18T20:38:31.521Z,45.16
2023-02-18T20:41:19.025Z,45.22
2023-02-18T20:44:05.649Z,45.33
2023-02-18T20:46:52.082Z,45.03
2023-02-18T20:49:38.538Z,45.34
2023-02-18T20:52:24.702Z,45.11
2023-02-18T20:55:10.902Z,45.25
2023-02-18T20:57:57.182Z,45.71
2023-02-18T21:00:43.548Z,45.05
2023-02-18T21:03:30.686Z,45.40
2023-02-18T21:06:19.564Z,45.38
2023-02-18T21:09:06.204Z,44.91
2023-02-18T21:11:52.316Z,45.32
2023-02-18T21:14:38.263Z,45.48
2023-02-18T21:17:24.120Z,45.29
2023-02-18T21:20:10.400Z,45.84
2023-02-18T21:22:56.462Z,45.16
2023-02-18T21:25:42.340Z,45.22
2023-02-18T21:28:28.080Z,45.52
2023-02-18T21:31:19.498Z,45.35
2023-02-18T21:34:06.989Z,45.66
2023-02-18T21:36:53.278Z,45.46
2023-02-18T21:39:39.181Z,45.67
2023-02-18T21:42:25.168Z,45.14
2023-02-18T21:45:16.937Z,45.32
2023-02-18T21:48:22.302Z,45.44
2023-02-18T21:51:08.598Z,45.75
2023-02-18T21:53:54.649Z,45.52
2023-02-18T21:56:40.527Z,45.69
2023-02-18T21:59:28.069Z,45.65
2023-02-18T22:02:23.145Z,46.12
2023-02-18T22:05:09.959Z,46.08
2023-02-18T22:07:56.594Z,46.03
2023-02-18T22:10:42.416Z,45.97
2023-02-18T22:13:28.538Z,45.92
2023-02-18T22:16:14.708Z,45.80
2023-02-18T22:19:00.559Z,46.06
2023-02-18T22:21:46.683Z,46.04
2023-02-18T22:24:32.894Z,46.06
2023-02-18T22:27:19.550Z,45.68
2023-02-18T22:30:06.321Z,45.95
2023-02-18T22:32:52.229Z,45.85
2023-02-18T22:35:37.872Z,45.78
2023-02-18T22:38:23.697Z,45.69
2023-02-18T22:41:11.980Z,46.06
2023-02-18T22:44:01.233Z,45.79
2023-02-18T22:46:47.545Z,45.66
2023-02-18T22:49:33.722Z,45.69
2023-02-18T22:52:19.996Z,45.96
2023-02-18T22:55:06.204Z,46.01
2023-02-18T22:57:52.327Z,45.91
2023-02-18T23:00:38.261Z,46.08
2023-02-18T23:03:24.058Z,46.00
2023-02-18T23:06:10.086Z,46.28
2023-02-18T23:08:56.581Z,46.12
2023-02-18T23:11:42.686Z,46.14
2023-02-18T23:14:30.584Z,46.10
2023-02-18T23:17:19.504Z,45.94
2023-02-18T23:20:06.075Z,46.14
2023-02-18T23:22:51.962Z,45.86
2023-02-18T23:25:37.825Z,46.32
2023-02-18T23:28:23.639Z,45.65
2023-02-18T23:31:10.062Z,45.59
2023-02-18T23:33:58.639Z,46.33
2023-02-18T23:36:46.007Z,45.91
2023-02-18T23:39:32.126Z,45.95
2023-02-18T23:42:18.044Z,46.22
2023-02-18T23:45:04.032Z,46.02
2023-02-18T23:47:50.116Z,46.12
2023-02-18T23:50:35.996Z,46.40
2023-02-18T23:53:25.787Z,45.93
2023-02-18T23:56:18.939Z,46.50
2023-02-18T23:59:05.635Z,46.27
